Time;durP1;ratioP1;P1;durP2;ratioP2;P2;SDS_P1;SDS_P2;PMS_P1;PMS_P2;Temp;Humidity;BMP_temperature;BMP_pressure;BME280_temperature;BME280_humidity;BME280_pressure;Samples;Min_cycle;Max_cycle;Signal;HPM_P1;HPM_P2
2024/02/06 00:01:27;;;;;;;;;;;;;;;;;;5053262;28;19909;-70
2024/02/06 00:03:53;;;;;;;;;;;;;;;;;;5053948;28;19954;-70
2024/02/06 00:06:19;;;;;;;;;;;;;;;;;;5052244;28;19909;-70
2024/02/06 00:08:45;;;;;;;;;;;;;;;;;;5053146;28;19909;-70
2024/02/06 00:11:11;;;;;;;;;;;;;;;;;;5052312;28;20007;-70
2024/02/06 00:13:37;;;;;;;;;;;;;;;;;;5053546;28;20284;-70
2024/02/06 00:16:03;;;;;;;;;;;;;;;;;;5053076;28;20441;-70
2024/02/06 00:18:29;;;;;;;;;;;;;;;;;;5056174;28;19988;-70
2024/02/06 00:20:55;;;;;;;;;;;;;;;;;;5057512;28;19963;-70
2024/02/06 00:23:21;;;;;;;;;;;;;;;;;;5055748;28;19945;-70
2024/02/06 00:25:48;;;;;;;;;;;;;;;;;;5057392;28;19908;-71
2024/02/06 00:28:14;;;;;;;;;;;;;;;;;;5057571;28;19909;-71
2024/02/06 00:30:39;;;;;;;;;;;;;;;;;;5056989;28;19909;-70
2024/02/06 00:33:05;;;;;;;;;;;;;;;;;;5057327;28;19915;-70
2024/02/06 00:35:31;;;;;;;;;;;;;;;;;;5057073;28;19917;-71
2024/02/06 00:37:59;;;;;;;;;;;;;;;;;;5056740;28;19924;-70
2024/02/06 00:40:25;;;;;;;;;;;;;;;;;;5057390;28;19967;-70
2024/02/06 00:42:51;;;;;;;;;;;;;;;;;;5056690;28;19947;-70
2024/02/06 00:45:17;;;;;;;;;;;;;;;;;;5057005;28;20040;-70
2024/02/06 00:47:43;;;;;;;;;;;;;;;;;;5055757;28;19909;-70
2024/02/06 00:50:09;;;;;;;;;;;;;;;;;;5056434;28;19931;-70
2024/02/06 00:52:35;;;;;;;;;;;;;;;;;;5056960;28;19909;-70
2024/02/06 00:55:01;;;;;;;;;;;;;;;;;;5055346;28;19924;-70
2024/02/06 00:57:27;;;;;;;;;;;;;;;;;;5056375;28;19986;-70
2024/02/06 00:59:53;;;;;;;;;;;;;;;;;;5056776;28;19909;-70
2024/02/06 01:02:19;;;;;;;;;;;;;;;;;;5056689;28;19909;-70
2024/02/06 01:04:45;;;;;;;;;;;;;;;;;;5056378;28;19909;-71
2024/02/06 01:07:11;;;;;;;;;;;;;;;;;;5055358;28;19959;-70
2024/02/06 01:09:37;;;;;;;;;;;;;;;;;;5056621;28;19909;-70
2024/02/06 01:12:02;;;;;;;;;;;;;;;;;;5056224;28;19939;-69
2024/02/06 01:14:28;;;;;;;;;;;;;;;;;;5056473;28;19909;-70
2024/02/06 01:16:54;;;;;;;;;;;;;;;;;;5056554;28;19970;-71
2024/02/06 01:19:20;;;;;;;;;;;;;;;;;;5056270;28;19913;-70
2024/02/06 01:21:46;;;;;;;;;;;;;;;;;;5056653;28;19909;-70
2024/02/06 01:24:12;;;;;;;;;;;;;;;;;;5056441;28;19909;-70
2024/02/06 01:26:38;;;;;;;;;;;;;;;;;;5055840;28;19909;-70
2024/02/06 01:29:04;;;;;;;;;;;;;;;;;;5055844;28;19916;-71
2024/02/06 01:31:30;;;;;;;;;;;;;;;;;;5056711;28;20365;-70
2024/02/06 01:33:56;;;;;;;;;;;;;;;;;;5055740;28;19999;-71
2024/02/06 01:36:22;;;;;;;;;;;;;;;;;;5055924;28;20015;-70
2024/02/06 01:38:48;;;;;;;;;;;;;;;;;;5056087;28;20004;-70
2024/02/06 01:41:14;;;;;;;;;;;;;;;;;;5055586;28;20380;-70
2024/02/06 01:43:40;;;;;;;;;;;;;;;;;;5055936;28;20392;-70
2024/02/06 01:46:06;;;;;;;;;;;;;;;;;;5055500;28;19924;-70
2024/02/06 01:48:32;;;;;;;;;;;;;;;;;;5055861;28;19909;-70
2024/02/06 01:50:58;;;;;;;;;;;;;;;;;;5055868;28;20316;-70
2024/02/06 01:53:24;;;;;;;;;;;;;;;;;;5055370;28;19909;-70
2024/02/06 01:55:50;;;;;;;;;;;;;;;;;;5055482;28;19920;-70
2024/02/06 01:58:16;;;;;;;;;;;;;;;;;;5055973;28;19913;-70
2024/02/06 02:00:41;;;;;;;;;;;;;;;;;;5055205;28;20277;-70
2024/02/06 02:03:07;;;;;;;;;;;;;;;;;;5055583;28;20281;-70
2024/02/06 02:05:33;;;;;;;;;;;;;;;;;;5055713;28;19909;-70
2024/02/06 02:07:59;;;;;;;;;;;;;;;;;;5055535;28;19999;-70
2024/02/06 02:10:25;;;;;;;;;;;;;;;;;;5055533;28;19916;-70
2024/02/06 02:12:51;;;;;;;;;;;;;;;;;;5054113;28;19971;-70
2024/02/06 02:15:17;;;;;;;;;;;;;;;;;;5054894;28;20390;-70
2024/02/06 02:17:43;;;;;;;;;;;;;;;;;;5055290;28;20365;-70
2024/02/06 02:20:09;;;;;;;;;;;;;;;;;;5054027;28;20000;-70
2024/02/06 02:22:35;;;;;;;;;;;;;;;;;;5054845;28;19908;-70
2024/02/06 02:25:01;;;;;;;;;;;;;;;;;;5055132;28;19991;-70
2024/02/06 02:27:27;;;;;;;;;;;;;;;;;;5055216;28;19959;-70
2024/02/06 02:29:53;;;;;;;;;;;;;;;;;;5054708;28;19999;-70
2024/02/06 02:32:19;;;;;;;;;;;;;;;;;;5053775;28;19923;-70
2024/02/06 02:34:45;;;;;;;;;;;;;;;;;;5055436;28;20345;-71
2024/02/06 02:37:11;;;;;;;;;;;;;;;;;;5054612;28;20346;-70
2024/02/06 02:39:37;;;;;;;;;;;;;;;;;;5054230;28;20281;-70
2024/02/06 02:42:03;;;;;;;;;;;;;;;;;;5054821;28;20351;-70
2024/02/06 02:44:29;;;;;;;;;;;;;;;;;;5054432;28;20462;-70
2024/02/06 02:46:55;;;;;;;;;;;;;;;;;;5054708;28;19908;-70
2024/02/06 02:49:21;;;;;;;;;;;;;;;;;;5054363;28;19955;-70
2024/02/06 02:51:47;;;;;;;;;;;;;;;;;;5054670;28;19908;-71
2024/02/06 02:54:15;;;;;;;;;;;;;;;;;;5054527;28;20331;-69
2024/02/06 02:56:41;;;;;;;;;;;;;;;;;;5054056;28;20381;-70
2024/02/06 02:59:07;;;;;;;;;;;;;;;;;;5054460;28;19959;-70
2024/02/06 03:01:33;;;;;;;;;;;;;;;;;;5054789;28;19931;-71
2024/02/06 03:03:59;;;;;;;;;;;;;;;;;;5054060;28;19909;-71
2024/02/06 03:06:25;;;;;;;;;;;;;;;;;;5054407;28;20396;-70
2024/02/06 03:08:51;;;;;;;;;;;;;;;;;;5054422;28;19974;-70
2024/02/06 03:11:17;;;;;;;;;;;;;;;;;;5054185;28;19945;-71
2024/02/06 03:13:43;;;;;;;;;;;;;;;;;;5054462;28;20050;-71
2024/02/06 03:16:09;;;;;;;;;;;;;;;;;;5054169;28;20293;-70
2024/02/06 03:18:35;;;;;;;;;;;;;;;;;;5054055;28;19909;-70
2024/02/06 03:21:01;;;;;;;;;;;;;;;;;;5054131;28;19912;-70
2024/02/06 03:23:27;;;;;;;;;;;;;;;;;;5052846;28;19913;-70
2024/02/06 03:25:53;;;;;;;;;;;;;;;;;;5052402;28;19912;-71
2024/02/06 03:28:19;;;;;;;;;;;;;;;;;;5054305;28;19908;-70
2024/02/06 03:30:45;;;;;;;;;;;;;;;;;;5054034;28;20399;-70
2024/02/06 03:33:11;;;;;;;;;;;;;;;;;;5053715;28;19913;-71
2024/02/06 03:35:37;;;;;;;;;;;;;;;;;;5053813;28;19913;-71
2024/02/06 03:38:03;;;;;;;;;;;;;;;;;;5054133;28;19909;-71
2024/02/06 03:40:29;;;;;;;;;;;;;;;;;;5053556;28;19935;-71
2024/02/06 03:42:55;;;;;;;;;;;;;;;;;;5053849;28;19915;-71
2024/02/06 03:45:21;;;;;;;;;;;;;;;;;;5054024;28;20391;-71
2024/02/06 03:47:46;;;;;;;;;;;;;;;;;;5053358;28;20386;-70
2024/02/06 03:50:12;;;;;;;;;;;;;;;;;;5053595;28;19909;-71
2024/02/06 03:52:38;;;;;;;;;;;;;;;;;;5053372;28;19916;-71
2024/02/06 03:55:04;;;;;;;;;;;;;;;;;;5052088;28;20015;-71
2024/02/06 03:57:30;;;;;;;;;;;;;;;;;;5053683;28;19913;-70
2024/02/06 03:59:56;;;;;;;;;;;;;;;;;;5053233;28;19908;-71
2024/02/06 04:02:22;;;;;;;;;;;;;;;;;;5053900;28;19994;-70
2024/02/06 04:04:48;;;;;;;;;;;;;;;;;;5052357;28;20291;-71
2024/02/06 04:07:15;;;;;;;;;;;;;;;;;;5053412;28;20330;-69
2024/02/06 04:09:41;;;;;;;;;;;;;;;;;;5053562;28;20020;-71
2024/02/06 04:12:07;;;;;;;;;;;;;;;;;;5053536;28;19948;-70
2024/02/06 04:14:33;;;;;;;;;;;;;;;;;;5053075;28;20015;-71
2024/02/06 04:16:59;;;;;;;;;;;;;;;;;;5053410;28;19916;-71
2024/02/06 04:19:25;;;;;;;;;;;;;;;;;;5053516;28;19982;-69
2024/02/06 04:21:51;;;;;;;;;;;;;;;;;;5052984;28;19913;-69
2024/02/06 04:24:17;;;;;;;;;;;;;;;;;;5052188;28;19913;-69
2024/02/06 04:26:43;;;;;;;;;;;;;;;;;;5053456;28;19909;-69
2024/02/06 04:29:09;;;;;;;;;;;;;;;;;;5052942;28;19916;-69
2024/02/06 04:31:35;;;;;;;;;;;;;;;;;;5053313;28;19909;-69
2024/02/06 04:34:01;;;;;;;;;;;;;;;;;;5053333;28;19939;-70
2024/02/06 04:36:27;;;;;;;;;;;;;;;;;;5052839;28;19921;-69
2024/02/06 04:38:53;;;;;;;;;;;;;;;;;;5053268;28;19908;-69
2024/02/06 04:41:19;;;;;;;;;;;;;;;;;;5052265;28;19940;-69
2024/02/06 04:43:45;;;;;;;;;;;;;;;;;;5051613;28;19909;-69
2024/02/06 04:46:11;;;;;;;;;;;;;;;;;;5053228;28;19919;-70
2024/02/06 04:48:37;;;;;;;;;;;;;;;;;;5053267;28;19986;-72
2024/02/06 04:51:03;;;;;;;;;;;;;;;;;;5052716;28;20023;-71
2024/02/06 04:53:31;;;;;;;;;;;;;;;;;;5053087;28;19909;-71
2024/02/06 04:55:57;;;;;;;;;;;;;;;;;;5052542;28;19944;-71
2024/02/06 04:58:23;;;;;;;;;;;;;;;;;;5053412;28;20361;-71
2024/02/06 05:00:49;;;;;;;;;;;;;;;;;;5053106;28;20430;-72
2024/02/06 05:03:15;;;;;;;;;;;;;;;;;;5054483;28;20446;-71
2024/02/06 05:05:41;;;;;;;;;;;;;;;;;;5056680;28;20292;-71
2024/02/06 05:08:07;;;;;;;;;;;;;;;;;;5056663;28;19909;-71
2024/02/06 05:10:33;;;;;;;;;;;;;;;;;;5056304;28;19963;-71
2024/02/06 05:12:58;;;;;;;;;;;;;;;;;;5056580;28;20043;-71
2024/02/06 05:15:24;;;;;;;;;;;;;;;;;;5056725;28;19913;-71
2024/02/06 05:17:50;;;;;;;;;;;;;;;;;;5056169;28;19920;-71
2024/02/06 05:20:16;;;;;;;;;;;;;;;;;;5056419;28;20323;-71
2024/02/06 05:22:43;;;;;;;;;;;;;;;;;;5056403;28;19909;-71
2024/02/06 05:25:08;;;;;;;;;;;;;;;;;;5055740;28;19951;-71
2024/02/06 05:27:34;;;;;;;;;;;;;;;;;;5056311;28;19909;-69
2024/02/06 05:30:05;;;;;;;;;;;;;;;;;;5056170;28;19959;-69
2024/02/06 05:32:31;;;;;;;;;;;;;;;;;;5055795;28;19913;-69
2024/02/06 05:34:59;;;;;;;;;;;;;;;;;;5056086;28;19909;-70
2024/02/06 05:37:25;;;;;;;;;;;;;;;;;;5055996;28;20320;-70
2024/02/06 05:39:51;;;;;;;;;;;;;;;;;;5055644;28;19915;-70
2024/02/06 05:42:17;;;;;;;;;;;;;;;;;;5054949;28;20381;-70
2024/02/06 05:44:43;;;;;;;;;;;;;;;;;;5054256;28;19908;-70
2024/02/06 05:47:10;;;;;;;;;;;;;;;;;;5055355;28;19909;-70
2024/02/06 05:49:36;;;;;;;;;;;;;;;;;;5055859;28;19951;-70
2024/02/06 05:52:02;;;;;;;;;;;;;;;;;;5053870;28;19940;-70
2024/02/06 05:54:28;;;;;;;;;;;;;;;;;;5053522;28;19915;-69
2024/02/06 05:56:54;;;;;;;;;;;;;;;;;;5053955;28;19916;-70
2024/02/06 05:59:22;;;;;;;;;;;;;;;;;;5053405;28;19916;-70
2024/02/06 06:01:48;;;;;;;;;;;;;;;;;;5054180;28;20392;-70
2024/02/06 06:04:15;;;;;;;;;;;;;;;;;;5054520;28;19909;-70
2024/02/06 06:06:41;;;;;;;;;;;;;;;;;;5054854;28;20003;-70
2024/02/06 06:09:09;;;;;;;;;;;;;;;;;;5055449;28;19983;-69
2024/02/06 06:11:35;;;;;;;;;;;;;;;;;;5055354;28;20004;-69
2024/02/06 06:14:01;;;;;;;;;;;;;;;;;;5054902;28;19912;-69
2024/02/06 06:16:27;;;;;;;;;;;;;;;;;;5055148;28;19928;-70
2024/02/06 06:18:53;;;;;;;;;;;;;;;;;;5049709;28;20365;-69
2024/02/06 06:21:19;;;;;;;;;;;;;;;;;;5051020;28;20357;-69
2024/02/06 06:23:45;;;;;;;;;;;;;;;;;;5053633;28;19959;-69
2024/02/06 06:26:11;;;;;;;;;;;;;;;;;;5054010;28;20369;-71
2024/02/06 06:28:39;;;;;;;;;;;;;;;;;;5051216;28;20007;-72
2024/02/06 06:31:07;;;;;;;;;;;;;;;;;;5050979;28;20293;-67
2024/02/06 06:33:33;;;;;;;;;;;;;;;;;;5053900;28;20026;-69
2024/02/06 06:35:59;;;;;;;;;;;;;;;;;;5051010;28;19921;-69
2024/02/06 06:38:25;;;;;;;;;;;;;;;;;;5049503;28;19967;-67
2024/02/06 06:40:51;;;;;;;;;;;;;;;;;;5053281;28;19917;-69
2024/02/06 06:43:17;;;;;;;;;;;;;;;;;;5051529;28;19920;-68
2024/02/06 06:45:43;;;;;;;;;;;;;;;;;;5049105;28;19920;-68
2024/02/06 06:48:09;;;;;;;;;;;;;;;;;;5043525;28;19914;-70
2024/02/06 06:50:34;;;;;;;;;;;;;;;;;;5052415;28;19919;-69
2024/02/06 06:53:00;;;;;;;;;;;;;;;;;;5047287;28;19944;-67
2024/02/06 06:55:27;;;;;;;;;;;;;;;;;;5048964;28;19999;-68
2024/02/06 06:57:53;;;;;;;;;;;;;;;;;;5051435;28;20436;-68
2024/02/06 07:00:19;;;;;;;;;;;;;;;;;;5051458;28;19999;-68
2024/02/06 07:02:45;;;;;;;;;;;;;;;;;;5048852;28;20436;-69
2024/02/06 07:05:11;;;;;;;;;;;;;;;;;;5038333;28;19920;-69
2024/02/06 07:07:36;;;;;;;;;;;;;;;;;;5038728;28;19913;-69
2024/02/06 07:10:02;;;;;;;;;;;;;;;;;;5043412;28;19919;-68
2024/02/06 07:12:28;;;;;;;;;;;;;;;;;;5046824;28;19966;-68
2024/02/06 07:14:54;;;;;;;;;;;;;;;;;;5049776;28;19919;-68
2024/02/06 07:17:20;;;;;;;;;;;;;;;;;;5047360;28;19965;-67
2024/02/06 07:19:46;;;;;;;;;;;;;;;;;;5051989;28;19913;-70
2024/02/06 07:22:12;;;;;;;;;;;;;;;;;;5044510;28;19923;-67
2024/02/06 07:24:38;;;;;;;;;;;;;;;;;;5048887;28;19934;-69
2024/02/06 07:27:06;;;;;;;;;;;;;;;;;;5049722;28;20315;-71
2024/02/06 07:29:31;;;;;;;;;;;;;;;;;;5050607;28;20334;-71
2024/02/06 07:31:57;;;;;;;;;;;;;;;;;;5049255;28;20003;-68
2024/02/06 07:34:23;;;;;;;;;;;;;;;;;;5053085;28;19913;-68
2024/02/06 07:36:49;;;;;;;;;;;;;;;;;;5048786;28;20376;-69
2024/02/06 07:39:15;;;;;;;;;;;;;;;;;;5049522;28;19946;-69
2024/02/06 07:41:41;;;;;;;;;;;;;;;;;;5042900;28;20369;-69
2024/02/06 07:44:07;;;;;;;;;;;;;;;;;;5043984;28;19917;-69
2024/02/06 07:46:33;;;;;;;;;;;;;;;;;;5046932;28;19920;-68
2024/02/06 07:48:59;;;;;;;;;;;;;;;;;;5051869;28;20104;-67
2024/02/06 07:51:25;;;;;;;;;;;;;;;;;;5050767;28;20300;-68
2024/02/06 07:53:52;;;;;;;;;;;;;;;;;;5045651;28;19917;-69
2024/02/06 07:56:19;;;;;;;;;;;;;;;;;;5044588;28;19929;-68
2024/02/06 07:58:45;;;;;;;;;;;;;;;;;;5031982;28;19917;-69
2024/02/06 08:01:11;;;;;;;;;;;;;;;;;;5030343;28;19920;-69
2024/02/06 08:03:37;;;;;;;;;;;;;;;;;;5049927;28;20266;-71
2024/02/06 08:06:03;;;;;;;;;;;;;;;;;;5048674;28;19966;-70
2024/02/06 08:08:29;;;;;;;;;;;;;;;;;;5040373;28;19913;-70
2024/02/06 08:10:55;;;;;;;;;;;;;;;;;;5051927;28;19944;-69
2024/02/06 08:13:21;;;;;;;;;;;;;;;;;;5051870;28;19951;-70
2024/02/06 08:15:47;;;;;;;;;;;;;;;;;;5052347;28;19917;-71
2024/02/06 08:18:13;;;;;;;;;;;;;;;;;;5050905;28;20381;-70
2024/02/06 08:20:40;;;;;;;;;;;;;;;;;;5045993;28;20305;-72
2024/02/06 08:23:06;;;;;;;;;;;;;;;;;;5039397;28;19932;-70
2024/02/06 08:25:32;;;;;;;;;;;;;;;;;;5043625;28;19913;-70
2024/02/06 08:27:58;;;;;;;;;;;;;;;;;;5046583;28;20676;-71
2024/02/06 08:30:24;;;;;;;;;;;;;;;;;;5044945;28;19924;-73
2024/02/06 08:32:50;;;;;;;;;;;;;;;;;;5046610;28;19913;-68
2024/02/06 08:35:16;;;;;;;;;;;;;;;;;;5047747;28;20019;-68
2024/02/06 08:37:42;;;;;;;;;;;;;;;;;;5047479;28;19923;-68
2024/02/06 08:40:08;;;;;;;;;;;;;;;;;;5038873;28;19909;-69
2024/02/06 08:42:34;;;;;;;;;;;;;;;;;;5048681;28;19969;-69
2024/02/06 08:45:00;;;;;;;;;;;;;;;;;;5053675;28;20323;-69
2024/02/06 08:47:27;;;;;;;;;;;;;;;;;;5053221;28;19916;-69
2024/02/06 08:49:53;;;;;;;;;;;;;;;;;;5053030;28;19909;-69
2024/02/06 08:52:19;;;;;;;;;;;;;;;;;;5052846;28;19973;-69
2024/02/06 08:54:45;;;;;;;;;;;;;;;;;;5052498;28;19916;-71
2024/02/06 08:57:11;;;;;;;;;;;;;;;;;;5048526;28;19931;-70
2024/02/06 08:59:39;;;;;;;;;;;;;;;;;;5052281;28;20012;-70
2024/02/06 09:02:05;;;;;;;;;;;;;;;;;;5043353;28;19920;-70
2024/02/06 09:04:31;;;;;;;;;;;;;;;;;;5044355;28;19913;-70
2024/02/06 09:07:01;;;;;;;;;;;;;;;;;;5044089;28;19913;-71
2024/02/06 09:09:27;;;;;;;;;;;;;;;;;;5044621;28;20344;-70
2024/02/06 09:11:53;;;;;;;;;;;;;;;;;;5044333;28;19909;-71
2024/02/06 09:14:19;;;;;;;;;;;;;;;;;;5051023;28;19999;-69
2024/02/06 09:16:45;;;;;;;;;;;;;;;;;;5046036;28;19936;-70
2024/02/06 09:19:11;;;;;;;;;;;;;;;;;;5044436;28;20452;-70
2024/02/06 09:21:37;;;;;;;;;;;;;;;;;;5049817;28;20023;-70
2024/02/06 09:24:03;;;;;;;;;;;;;;;;;;5044571;28;19956;-72
2024/02/06 09:26:29;;;;;;;;;;;;;;;;;;5038550;28;19971;-69
2024/02/06 09:28:56;;;;;;;;;;;;;;;;;;5044406;28;19966;-70
2024/02/06 09:31:21;;;;;;;;;;;;;;;;;;5050248;28;19913;-71
2024/02/06 09:33:48;;;;;;;;;;;;;;;;;;5050047;28;20016;-69
2024/02/06 09:36:14;;;;;;;;;;;;;;;;;;5051494;28;20375;-68
2024/02/06 09:38:40;;;;;;;;;;;;;;;;;;5047837;28;19948;-68
2024/02/06 09:41:06;;;;;;;;;;;;;;;;;;5032445;28;20274;-72
2024/02/06 09:43:32;;;;;;;;;;;;;;;;;;5051941;28;19945;-70
2024/02/06 09:45:59;;;;;;;;;;;;;;;;;;5040276;28;19951;-70
2024/02/06 09:48:25;;;;;;;;;;;;;;;;;;5038347;28;19920;-71
2024/02/06 09:50:51;;;;;;;;;;;;;;;;;;5033871;28;19928;-70
2024/02/06 09:53:17;;;;;;;;;;;;;;;;;;5046403;28;19908;-71
2024/02/06 09:55:43;;;;;;;;;;;;;;;;;;5048833;28;20010;-70
2024/02/06 09:58:09;;;;;;;;;;;;;;;;;;5050119;28;19936;-70
2024/02/06 10:00:35;;;;;;;;;;;;;;;;;;5049219;28;19909;-70
2024/02/06 10:03:01;;;;;;;;;;;;;;;;;;5049191;28;19917;-72
2024/02/06 10:05:27;;;;;;;;;;;;;;;;;;5047772;28;19920;-72
2024/02/06 10:10:22;;;;;;;;;;;;;;;;;;5087388;27;20385;-72
2024/02/06 10:12:48;;;;;;;;;;;;;;;;;;5078382;28;20403;-70
2024/02/06 10:16:10;;;;;;;;;;;;;;;;;;5086332;27;20258;-73
2024/02/06 10:21:06;;;;;;;;;;;;;;;;;;5085072;27;19920;-73
2024/02/06 10:23:33;;;;;;;;;;;;;;;;;;5083503;28;19912;-72
2024/02/06 10:25:59;;;;;;;;;;;;;;;;;;5075696;28;19912;-72
2024/02/06 10:29:49;;;;;;;;;;;;;;;;;;5086133;27;19930;-72
2024/02/06 10:32:15;;;;;;;;;;;;;;;;;;5082870;28;19963;-73
2024/02/06 10:34:42;;;;;;;;;;;;;;;;;;5078260;28;19908;-72
2024/02/06 10:37:07;;;;;;;;;;;;;;;;;;5084547;28;19909;-72
2024/02/06 10:39:34;;;;;;;;;;;;;;;;;;5083900;28;20395;-73
2024/02/06 10:42:17;;;;;;;;;;;;;;;;;;5065178;27;19927;-69
2024/02/06 10:44:57;;;;;;;;;;;;;;;;;;5141915;27;20282;-70
2024/02/06 10:47:24;;;;;;;;;;;;;;;;;;5110102;28;19916;-68
2024/02/06 10:49:50;;;;;;;;;;;;;;;;;;5126856;28;19907;-68
2024/02/06 10:53:40;;;;;;;;;;;;;;;;;;5090387;28;19920;-69
2024/02/06 10:56:06;;;;;;;;;;;;;;;;;;5087891;28;20328;-72
2024/02/06 10:58:32;;;;;;;;;;;;;;;;;;5085849;28;19914;-70
2024/02/06 11:01:30;;;;;;;;;;;;;;;;;;5169602;27;19923;-70
2024/02/06 11:04:23;;;;;;;;;;;;;;;;;;5087304;27;19985;-73
2024/02/06 11:06:49;;;;;;;;;;;;;;;;;;5086595;28;20365;-70
2024/02/06 11:09:16;;;;;;;;;;;;;;;;;;5083095;28;19983;-72
2024/02/06 11:11:42;;;;;;;;;;;;;;;;;;5084786;28;20543;-73
2024/02/06 11:14:09;;;;;;;;;;;;;;;;;;5085659;28;19934;-73
2024/02/06 11:21:04;;;;;;;;;;;;;;;;;;5143575;27;19916;-70
2024/02/06 11:23:30;;;;;;;;;;;;;;;;;;5117502;28;20283;-70
2024/02/06 11:27:26;;;;;;;;;;;;;;;;;;5149102;27;20483;-71
2024/02/06 11:29:52;;;;;;;;;;;;;;;;;;5117699;27;20014;-70
2024/02/06 11:32:18;;;;;;;;;;;;;;;;;;5116830;28;19911;-73
2024/02/06 11:34:55;;;;;;;;;;;;;;;;;;5087289;27;19927;-70
2024/02/06 11:37:21;;;;;;;;;;;;;;;;;;5085217;28;19916;-71
2024/02/06 11:39:47;;;;;;;;;;;;;;;;;;5096563;28;19958;-71
2024/02/06 11:42:13;;;;;;;;;;;;;;;;;;5084864;28;19916;-72
2024/02/06 11:44:39;;;;;;;;;;;;;;;;;;5086178;28;19922;-71
2024/02/06 11:47:05;;;;;;;;;;;;;;;;;;5089377;28;19969;-71
2024/02/06 11:49:31;;;;;;;;;;;;;;;;;;5084700;28;19918;-71
2024/02/06 11:51:57;;;;;;;;;;;;;;;;;;5086446;28;20582;-73
2024/02/06 11:55:02;;;;;;;;;;;;;;;;;;5135548;27;20295;-72
2024/02/06 11:57:28;;;;;;;;;;;;;;;;;;5127708;28;19920;-76
2024/02/06 12:00:29;;;;;;;;;;;;;;;;;;5089356;28;19927;-73
2024/02/06 12:04:56;;;;;;;;;;;;;;;;;;5081600;27;20401;-71
2024/02/06 12:07:22;;;;;;;;;;;;;;;;;;5060386;28;19916;-70
2024/02/06 12:09:49;;;;;;;;;;;;;;;;;;5047212;28;19913;-75
2024/02/06 12:12:15;;;;;;;;;;;;;;;;;;5064298;28;19917;-71
2024/02/06 12:14:41;;;;;;;;;;;;;;;;;;5057717;28;19913;-75
2024/02/06 12:17:07;;;;;;;;;;;;;;;;;;5047737;28;20086;-72
2024/02/06 12:19:32;;;;;;;;;;;;;;;;;;5053818;28;19919;-73
2024/02/06 12:21:58;;;;;;;;;;;;;;;;;;5062578;28;19912;-72
2024/02/06 12:24:25;;;;;;;;;;;;;;;;;;5052380;28;19982;-72
2024/02/06 12:26:51;;;;;;;;;;;;;;;;;;5060764;28;19955;-73
2024/02/06 12:29:17;;;;;;;;;;;;;;;;;;5049926;28;19913;-74
2024/02/06 12:31:43;;;;;;;;;;;;;;;;;;5055858;28;20171;-73
2024/02/06 12:34:10;;;;;;;;;;;;;;;;;;5065339;28;19916;-76
2024/02/06 12:36:37;;;;;;;;;;;;;;;;;;5056993;28;19917;-73
2024/02/06 12:39:08;;;;;;;;;;;;;;;;;;5068420;28;19913;-75
2024/02/06 12:41:34;;;;;;;;;;;;;;;;;;5055328;28;19924;-73
2024/02/06 12:44:00;;;;;;;;;;;;;;;;;;5061238;28;20332;-75
2024/02/06 12:46:26;;;;;;;;;;;;;;;;;;5068503;28;19932;-75
2024/02/06 12:48:52;;;;;;;;;;;;;;;;;;5067216;28;19913;-73
2024/02/06 12:55:19;;;;;;;;;;;;;;;;;;5110992;27;19920;-74
2024/02/06 12:57:47;;;;;;;;;;;;;;;;;;5109241;28;19912;-75
2024/02/06 13:00:13;;;;;;;;;;;;;;;;;;5110953;28;19908;-75
2024/02/06 13:02:45;;;;;;;;;;;;;;;;;;5109828;28;19912;-76
2024/02/06 13:05:12;;;;;;;;;;;;;;;;;;5110905;28;19908;-70
2024/02/06 13:07:38;;;;;;;;;;;;;;;;;;5111055;28;20367;-70
2024/02/06 13:10:05;;;;;;;;;;;;;;;;;;5110654;28;19951;-71
2024/02/06 13:12:31;;;;;;;;;;;;;;;;;;5114694;27;19947;-73
2024/02/06 13:14:57;;;;;;;;;;;;;;;;;;5110742;28;19961;-75
2024/02/06 13:17:23;;;;;;;;;;;;;;;;;;5110124;28;19911;-77
2024/02/06 13:19:49;;;;;;;;;;;;;;;;;;5103421;28;19980;-71
2024/02/06 13:22:15;;;;;;;;;;;;;;;;;;5110457;28;19912;-74
2024/02/06 13:24:41;;;;;;;;;;;;;;;;;;5125881;28;19964;-74
2024/02/06 13:27:07;;;;;;;;;;;;;;;;;;5124362;28;19912;-74
2024/02/06 13:29:35;;;;;;;;;;;;;;;;;;5120662;28;19919;-78
2024/02/06 13:32:01;;;;;;;;;;;;;;;;;;5114459;28;19912;-69
2024/02/06 13:34:27;;;;;;;;;;;;;;;;;;5108651;28;20410;-70
2024/02/06 13:36:53;;;;;;;;;;;;;;;;;;5109844;28;19914;-71
2024/02/06 13:39:22;;;;;;;;;;;;;;;;;;5109983;28;20673;-71
2024/02/06 13:41:48;;;;;;;;;;;;;;;;;;5114709;28;19969;-74
2024/02/06 13:44:14;;;;;;;;;;;;;;;;;;5130264;27;19939;-72
2024/02/06 13:46:40;;;;;;;;;;;;;;;;;;5127092;27;20410;-71
2024/02/06 13:49:06;;;;;;;;;;;;;;;;;;5130425;27;19922;-72
2024/02/06 13:51:34;;;;;;;;;;;;;;;;;;5120401;27;19996;-72
2024/02/06 13:54:00;;;;;;;;;;;;;;;;;;5116536;28;19989;-74
2024/02/06 13:56:26;;;;;;;;;;;;;;;;;;5108168;28;20360;-76
2024/02/06 13:58:52;;;;;;;;;;;;;;;;;;5110371;28;20451;-71
2024/02/06 14:01:20;;;;;;;;;;;;;;;;;;5116613;28;20114;-73
2024/02/06 14:03:46;;;;;;;;;;;;;;;;;;5130176;27;20461;-73
2024/02/06 14:06:12;;;;;;;;;;;;;;;;;;5118828;27;19907;-74
2024/02/06 14:08:38;;;;;;;;;;;;;;;;;;5116970;28;19957;-74
2024/02/06 14:11:04;;;;;;;;;;;;;;;;;;5117191;28;19929;-73
2024/02/06 14:13:30;;;;;;;;;;;;;;;;;;5116541;28;19918;-74
2024/02/06 14:15:56;;;;;;;;;;;;;;;;;;5117480;28;19994;-73
2024/02/06 14:19:46;;;;;;;;;;;;;;;;;;5091221;27;19916;-73
2024/02/06 14:22:12;;;;;;;;;;;;;;;;;;5091226;28;19919;-73
2024/02/06 14:24:38;;;;;;;;;;;;;;;;;;5089907;28;19957;-73
2024/02/06 14:27:04;;;;;;;;;;;;;;;;;;5090832;28;19923;-73
2024/02/06 14:29:30;;;;;;;;;;;;;;;;;;5091265;28;20261;-73
2024/02/06 14:31:56;;;;;;;;;;;;;;;;;;5091040;28;19919;-73
2024/02/06 14:34:22;;;;;;;;;;;;;;;;;;5089654;28;19908;-74
2024/02/06 14:36:48;;;;;;;;;;;;;;;;;;5090861;28;19908;-73
2024/02/06 14:39:14;;;;;;;;;;;;;;;;;;5090905;28;19961;-73
2024/02/06 14:41:40;;;;;;;;;;;;;;;;;;5090541;28;20284;-73
2024/02/06 14:44:06;;;;;;;;;;;;;;;;;;5090841;28;19912;-74
2024/02/06 14:46:32;;;;;;;;;;;;;;;;;;5090866;28;19908;-73
2024/02/06 14:48:58;;;;;;;;;;;;;;;;;;5090518;28;20349;-73
2024/02/06 14:51:24;;;;;;;;;;;;;;;;;;5091345;28;20380;-74
2024/02/06 14:53:50;;;;;;;;;;;;;;;;;;5090343;28;19908;-75
2024/02/06 14:56:16;;;;;;;;;;;;;;;;;;5090462;28;19912;-74
2024/02/06 14:58:42;;;;;;;;;;;;;;;;;;5090455;28;20007;-75
2024/02/06 15:01:08;;;;;;;;;;;;;;;;;;5090363;28;19908;-74
2024/02/06 15:03:36;;;;;;;;;;;;;;;;;;5090515;28;19909;-75
2024/02/06 15:07:03;;;;;;;;;;;;;;;;;;5091543;27;19919;-76
2024/02/06 15:09:29;;;;;;;;;;;;;;;;;;5090935;28;20003;-76
2024/02/06 15:11:55;;;;;;;;;;;;;;;;;;5091001;28;19937;-76
2024/02/06 15:14:21;;;;;;;;;;;;;;;;;;5091201;28;19912;-76
2024/02/06 15:16:47;;;;;;;;;;;;;;;;;;5090717;28;19909;-76
2024/02/06 15:19:13;;;;;;;;;;;;;;;;;;5091268;28;19908;-76
2024/02/06 15:21:39;;;;;;;;;;;;;;;;;;5091044;28;19915;-75
2024/02/06 15:24:05;;;;;;;;;;;;;;;;;;5090611;28;19912;-74
2024/02/06 15:26:32;;;;;;;;;;;;;;;;;;5090879;28;19920;-74
2024/02/06 15:30:13;;;;;;;;;;;;;;;;;;5071095;28;19923;-74
2024/02/06 15:32:39;;;;;;;;;;;;;;;;;;5071045;28;19913;-75
2024/02/06 15:35:05;;;;;;;;;;;;;;;;;;5071030;28;19912;-75
2024/02/06 15:37:31;;;;;;;;;;;;;;;;;;5070584;28;19908;-75
2024/02/06 15:39:57;;;;;;;;;;;;;;;;;;5071039;28;19999;-75
2024/02/06 15:42:24;;;;;;;;;;;;;;;;;;5070860;28;19908;-75
2024/02/06 15:44:50;;;;;;;;;;;;;;;;;;5070487;28;20004;-75
2024/02/06 15:47:16;;;;;;;;;;;;;;;;;;5070813;28;19908;-75
2024/02/06 15:49:42;;;;;;;;;;;;;;;;;;5070686;28;20441;-75
2024/02/06 15:52:42;;;;;;;;;;;;;;;;;;5091312;27;19923;-76
2024/02/06 15:57:50;;;;;;;;;;;;;;;;;;5091375;28;20295;-74
2024/02/06 16:00:16;;;;;;;;;;;;;;;;;;5091267;28;20407;-73
2024/02/06 16:02:42;;;;;;;;;;;;;;;;;;5091179;28;19909;-74
2024/02/06 16:06:08;;;;;;;;;;;;;;;;;;5111264;27;20370;-75
2024/02/06 16:08:34;;;;;;;;;;;;;;;;;;5111651;28;19920;-76
2024/02/06 16:11:00;;;;;;;;;;;;;;;;;;5111521;28;19914;-76
2024/02/06 16:13:53;;;;;;;;;;;;;;;;;;5071695;28;19916;-76
2024/02/06 16:16:20;;;;;;;;;;;;;;;;;;5071223;28;20011;-77
2024/02/06 16:18:46;;;;;;;;;;;;;;;;;;5070628;28;19912;-76
2024/02/06 16:21:12;;;;;;;;;;;;;;;;;;5070893;28;19909;-75
2024/02/06 16:23:38;;;;;;;;;;;;;;;;;;5070966;28;19909;-76
2024/02/06 16:26:05;;;;;;;;;;;;;;;;;;5070470;28;19955;-76
2024/02/06 16:28:31;;;;;;;;;;;;;;;;;;5070933;28;19909;-74
2024/02/06 16:30:57;;;;;;;;;;;;;;;;;;5071359;28;20376;-74
2024/02/06 16:33:23;;;;;;;;;;;;;;;;;;5070401;28;19966;-76
2024/02/06 16:35:49;;;;;;;;;;;;;;;;;;5070749;28;20007;-74
2024/02/06 16:38:15;;;;;;;;;;;;;;;;;;5070675;28;19909;-74
2024/02/06 16:40:41;;;;;;;;;;;;;;;;;;5070269;28;19908;-75
2024/02/06 16:43:07;;;;;;;;;;;;;;;;;;5070546;28;19909;-74
2024/02/06 16:45:33;;;;;;;;;;;;;;;;;;5070589;28;19913;-75
2024/02/06 16:47:59;;;;;;;;;;;;;;;;;;5070083;28;19909;-75
2024/02/06 16:50:25;;;;;;;;;;;;;;;;;;5070433;28;19996;-74
2024/02/06 16:52:54;;;;;;;;;;;;;;;;;;5070323;28;20357;-74
2024/02/06 16:55:20;;;;;;;;;;;;;;;;;;5069971;28;19909;-75
2024/02/06 16:57:46;;;;;;;;;;;;;;;;;;5070261;28;19943;-75
2024/02/06 17:00:12;;;;;;;;;;;;;;;;;;5070028;28;19915;-74
2024/02/06 17:02:38;;;;;;;;;;;;;;;;;;5068945;28;20374;-74
2024/02/06 17:05:06;;;;;;;;;;;;;;;;;;5070344;28;20003;-74
2024/02/06 17:07:32;;;;;;;;;;;;;;;;;;5069632;28;19909;-74
2024/02/06 17:09:58;;;;;;;;;;;;;;;;;;5070068;28;19909;-74